Time;durP1;ratioP1;P1;durP2;ratioP2;P2;SDS_P1;SDS_P2;PMS_P1;PMS_P2;Temp;Humidity;BMP_temperature;BMP_pressure;BME280_temperature;BME280_humidity;BME280_pressure;Samples;Min_cycle;Max_cycle;Signal;HPM_P1;HPM_P2
2023/04/08 05:02:19;;;;;;;21.67;13.70;;;9.40;99.90;;;;;;6560978;23;20049;-77
2023/04/08 05:05:21;;;;;;;21.15;13.90;;;9.40;99.90;;;;;;6224886;28;20438;-76
2023/04/08 05:08:23;;;;;;;20.13;13.27;;;9.30;99.90;;;;;;6225034;28;20053;-77
2023/04/08 05:11:24;;;;;;;22.92;13.00;;;9.30;99.90;;;;;;6228892;28;20049;-76
2023/04/08 05:14:29;;;;;;;23.13;14.07;;;9.30;99.90;;;;;;6224576;28;20046;-77
2023/04/08 05:17:32;;;;;;;20.38;13.32;;;9.30;99.90;;;;;;6204001;28;20189;-75
2023/04/08 05:20:34;;;;;;;20.05;12.82;;;9.30;99.90;;;;;;6208075;28;20047;-77
2023/04/08 05:23:36;;;;;;;21.58;13.70;;;9.30;99.90;;;;;;6208376;28;20484;-80
2023/04/08 05:26:38;;;;;;;18.70;12.00;;;9.30;99.90;;;;;;6204499;28;20042;-80
2023/04/08 05:29:40;;;;;;;16.05;10.82;;;9.40;99.90;;;;;;6196570;28;20051;-79
2023/04/08 05:32:43;;;;;;;22.42;14.18;;;9.40;99.90;;;;;;6188406;28;20403;-79
2023/04/08 05:35:45;;;;;;;21.27;13.73;;;9.30;99.90;;;;;;6206508;28;20042;-78
2023/04/08 05:38:47;;;;;;;18.67;12.25;;;9.20;99.90;;;;;;6216538;28;20057;-79
2023/04/08 05:41:49;;;;;;;17.90;13.00;;;9.30;99.90;;;;;;6189266;28;20042;-76
2023/04/08 05:44:51;;;;;;;23.40;14.15;;;9.40;99.90;;;;;;6203529;28;20050;-77
2023/04/08 05:47:55;;;;;;;21.27;13.55;;;9.40;99.90;;;;;;6203449;28;20105;-75
2023/04/08 05:50:57;;;;;;;19.58;12.77;;;9.40;99.90;;;;;;6192768;28;20055;-78
2023/04/08 05:53:59;;;;;;;18.92;11.95;;;9.40;99.90;;;;;;6201883;28;20051;-80
2023/04/08 05:57:00;;;;;;;23.40;13.85;;;9.50;99.90;;;;;;6203472;28;20636;-80
2023/04/08 06:00:03;;;;;;;19.95;12.60;;;9.50;99.90;;;;;;6199989;28;20050;-81
2023/04/08 06:03:06;;;;;;;18.88;12.27;;;9.50;99.90;;;;;;6200194;28;20054;-80
2023/04/08 06:06:11;;;;;;;18.65;11.73;;;9.40;99.90;;;;;;6199460;28;20468;-80
2023/04/08 06:09:13;;;;;;;18.40;11.82;;;9.40;99.90;;;;;;6201497;28;20046;-77
2023/04/08 06:12:15;;;;;;;19.75;12.85;;;9.40;99.90;;;;;;6189183;28;20050;-76
2023/04/08 06:15:17;;;;;;;19.08;12.73;;;9.40;99.90;;;;;;6181508;28;20128;-79
2023/04/08 06:18:20;;;;;;;20.20;13.10;;;9.30;99.90;;;;;;6192922;28;20053;-77
2023/04/08 06:21:22;;;;;;;21.13;12.77;;;9.30;99.90;;;;;;6197129;28;20484;-78
2023/04/08 06:24:25;;;;;;;20.48;11.88;;;9.30;99.90;;;;;;6202520;28;20050;-78
2023/04/08 06:27:26;;;;;;;21.88;13.10;;;9.30;99.90;;;;;;6196686;28;20074;-77
2023/04/08 06:30:28;;;;;;;20.55;13.32;;;9.20;99.90;;;;;;6186816;28;20062;-78
2023/04/08 06:33:32;;;;;;;21.17;13.82;;;9.20;99.90;;;;;;6201023;28;20046;-78
2023/04/08 06:36:33;;;;;;;23.80;15.63;;;9.10;99.90;;;;;;6200560;28;20419;-79
2023/04/08 06:39:35;;;;;;;19.25;13.35;;;8.90;99.90;;;;;;6202515;28;20050;-78
2023/04/08 06:42:39;;;;;;;23.52;14.52;;;8.90;99.90;;;;;;6202137;28;20046;-80
2023/04/08 06:45:41;;;;;;;21.30;13.32;;;8.90;99.90;;;;;;6186787;28;20511;-80
2023/04/08 06:48:45;;;;;;;20.30;13.82;;;9.00;99.90;;;;;;6196140;28;20062;-77
2023/04/08 06:51:47;;;;;;;17.13;11.88;;;9.00;99.90;;;;;;6199503;28;20038;-80
2023/04/08 06:54:49;;;;;;;20.85;13.43;;;9.00;99.90;;;;;;6201421;28;20439;-80
2023/04/08 06:57:52;;;;;;;20.48;14.02;;;9.00;99.90;;;;;;6202137;28;20455;-79
2023/04/08 07:00:55;;;;;;;18.88;13.68;;;9.10;99.90;;;;;;6183675;28;20404;-79
2023/04/08 07:03:58;;;;;;;20.63;13.95;;;9.10;99.90;;;;;;6195974;28;20050;-80
2023/04/08 07:07:00;;;;;;;18.95;13.32;;;9.10;99.90;;;;;;6198766;28;20054;-81
2023/04/08 07:10:02;;;;;;;18.90;13.32;;;9.10;99.90;;;;;;6201096;28;20050;-78
2023/04/08 07:13:04;;;;;;;20.33;13.60;;;9.20;99.90;;;;;;6185848;28;20073;-79
2023/04/08 07:16:07;;;;;;;19.45;13.68;;;9.30;99.90;;;;;;6179744;28;20050;-78
2023/04/08 07:19:10;;;;;;;20.05;12.63;;;9.30;99.90;;;;;;6187428;28;20611;-80
2023/04/08 07:22:12;;;;;;;18.98;13.45;;;9.30;99.90;;;;;;6190977;28;20046;-79
2023/04/08 07:25:14;;;;;;;20.42;13.88;;;9.40;99.90;;;;;;6200471;28;20053;-79
2023/04/08 07:28:17;;;;;;;17.70;12.98;;;9.40;99.90;;;;;;6191393;28;20051;-80
2023/04/08 07:31:19;;;;;;;19.95;12.90;;;9.50;99.90;;;;;;6190875;28;20512;-75
2023/04/08 07:34:22;;;;;;;17.77;12.52;;;9.60;99.90;;;;;;6206816;28;20488;-77
2023/04/08 07:37:24;;;;;;;18.30;12.75;;;9.50;99.90;;;;;;6222402;28;20054;-79
2023/04/08 07:40:26;;;;;;;18.40;11.80;;;9.60;99.90;;;;;;6176617;28;20501;-78
2023/04/08 07:43:28;;;;;;;16.98;11.70;;;9.70;99.90;;;;;;6176528;28;20046;-80
2023/04/08 07:46:30;;;;;;;18.77;13.00;;;9.70;99.90;;;;;;6182027;28;20046;-80
2023/04/08 07:49:33;;;;;;;18.15;12.18;;;9.50;99.90;;;;;;6196287;28;20042;-78
2023/04/08 07:52:35;;;;;;;15.50;11.00;;;9.60;99.90;;;;;;6194505;28;20050;-78
2023/04/08 07:55:38;;;;;;;16.38;11.38;;;9.60;99.90;;;;;;6188356;28;20396;-77
2023/04/08 07:58:40;;;;;;;15.85;11.27;;;9.60;99.90;;;;;;6175697;28;20047;-77
2023/04/08 08:01:42;;;;;;;15.77;11.10;;;9.60;99.90;;;;;;6204219;28;20412;-80
2023/04/08 08:04:45;;;;;;;17.30;12.07;;;9.60;99.90;;;;;;6207757;28;20404;-78
2023/04/08 08:07:47;;;;;;;18.75;12.07;;;9.50;99.90;;;;;;6206791;28;20042;-78
2023/04/08 08:10:49;;;;;;;18.33;12.52;;;9.40;99.90;;;;;;6210463;28;20054;-76
2023/04/08 08:13:51;;;;;;;17.83;12.90;;;9.40;99.90;;;;;;6213146;28;20057;-77
2023/04/08 08:16:54;;;;;;;18.10;12.13;;;9.50;99.90;;;;;;6215639;28;20104;-78
2023/04/08 08:19:57;;;;;;;17.10;12.05;;;9.60;99.90;;;;;;6211691;28;20050;-77
2023/04/08 08:22:59;;;;;;;16.52;11.45;;;9.70;99.90;;;;;;6208881;28;20054;-77
2023/04/08 08:26:02;;;;;;;16.55;11.57;;;9.80;99.90;;;;;;6199898;28;20050;-77
2023/04/08 08:29:05;;;;;;;16.83;11.23;;;9.90;99.90;;;;;;6181033;28;20043;-78
2023/04/08 08:32:07;;;;;;;20.27;12.75;;;10.10;99.90;;;;;;6180158;28;20043;-77
2023/04/08 08:35:10;;;;;;;17.80;11.77;;;10.10;99.90;;;;;;6180957;28;20046;-77
2023/04/08 08:38:13;;;;;;;17.35;11.68;;;10.10;99.90;;;;;;6199619;28;20046;-77
2023/04/08 08:41:15;;;;;;;15.63;11.43;;;10.20;99.90;;;;;;6192975;28;20495;-77
2023/04/08 08:44:17;;;;;;;14.65;10.27;;;10.20;99.90;;;;;;6190123;28;20068;-76
2023/04/08 08:47:19;;;;;;;16.80;11.25;;;10.30;99.90;;;;;;6187060;28;20049;-78
2023/04/08 08:50:22;;;;;;;16.13;11.18;;;10.30;99.90;;;;;;6179838;28;20050;-79
2023/04/08 08:53:30;;;;;;;16.63;11.10;;;10.40;99.90;;;;;;6189514;28;20050;-76
2023/04/08 08:56:33;;;;;;;16.50;11.40;;;10.50;99.90;;;;;;6197822;28;20408;-76
2023/04/08 08:59:35;;;;;;;16.90;12.05;;;10.30;99.90;;;;;;6199161;28;20050;-81
2023/04/08 09:02:37;;;;;;;17.05;12.05;;;10.20;99.90;;;;;;6201381;28;20098;-78
2023/04/08 09:05:48;;;;;;;14.95;10.98;;;10.30;99.90;;;;;;6199542;28;20058;-80
2023/04/08 09:08:50;;;;;;;16.13;10.98;;;10.60;99.90;;;;;;6195340;28;20051;-80
2023/04/08 09:12:05;;;;;;;15.68;11.48;;;10.80;99.90;;;;;;6194879;28;20050;-80
2023/04/08 09:15:09;;;;;;;16.10;11.52;;;10.70;99.90;;;;;;6195593;28;20061;-80
2023/04/08 09:18:22;;;;;;;15.93;11.27;;;10.90;99.90;;;;;;6180081;28;20047;-80
2023/04/08 09:21:26;;;;;;;15.75;12.05;;;11.10;99.90;;;;;;6174772;28;20050;-80
2023/04/08 09:24:29;;;;;;;;;;;11.20;99.90;;;;;;6175626;28;20098;-80
2023/04/08 09:27:35;;;;;;;15.50;11.77;;;11.30;99.90;;;;;;6176194;28;19929;-79
2023/04/08 09:30:37;;;;;;;17.02;12.15;;;11.50;99.90;;;;;;6175583;28;20051;-80
2023/04/08 09:33:39;;;;;;;21.80;14.65;;;11.40;99.90;;;;;;6199110;28;20086;-80
2023/04/08 09:36:44;;;;;;;29.65;19.17;;;11.30;99.90;;;;;;6199108;28;20051;-78
2023/04/08 09:39:47;;;;;;;19.75;12.88;;;11.70;99.60;;;;;;6195918;28;20447;-79
2023/04/08 09:42:52;;;;;;;15.13;11.65;;;11.90;99.60;;;;;;6198051;28;20558;-78
2023/04/08 09:45:54;;;;;;;15.30;11.98;;;11.90;99.20;;;;;;6199379;28;20472;-81
2023/04/08 09:49:06;;;;;;;15.32;11.63;;;12.20;98.90;;;;;;6193310;28;20050;-77
2023/04/08 09:52:15;;;;;;;15.27;11.73;;;12.20;98.20;;;;;;6187147;28;20043;-78
2023/04/08 09:55:22;;;;;;;15.05;11.50;;;12.40;97.10;;;;;;6198755;28;20056;-81
2023/04/08 09:58:29;;;;;;;13.82;11.15;;;12.50;97.60;;;;;;6203395;28;20050;-78
2023/04/08 10:01:38;;;;;;;16.60;11.55;;;12.60;95.50;;;;;;6183457;28;20070;-78
2023/04/08 10:04:45;;;;;;;15.25;11.75;;;12.50;94.80;;;;;;6182715;28;20097;-79
2023/04/08 10:07:50;;;;;;;14.95;11.73;;;12.40;94.60;;;;;;6188907;28;20430;-80
2023/04/08 10:10:55;;;;;;;17.58;11.35;;;12.40;94.30;;;;;;6199433;28;20050;-78
2023/04/08 10:13:57;;;;;;;14.60;10.70;;;12.70;94.50;;;;;;6203062;28;20046;-80
2023/04/08 10:17:27;;;;;;;15.27;11.73;;;12.90;94.60;;;;;;6203216;28;20137;-80
2023/04/08 10:20:43;;;;;;;16.27;11.30;;;12.90;95.00;;;;;;6203289;28;20050;-78
2023/04/08 10:23:59;;;;;;;14.82;10.95;;;12.70;94.70;;;;;;6203065;28;20077;-78
2023/04/08 10:27:04;;;;;;;14.93;11.27;;;12.80;94.00;;;;;;6203442;28;20488;-78
2023/04/08 10:30:46;;;;;;;14.20;10.82;;;12.90;91.50;;;;;;6203299;28;20503;-78
2023/04/08 10:33:48;;;;;;;;;;;13.20;90.70;;;;;;6204518;28;20388;-83
2023/04/08 10:36:51;;;;;;;15.50;11.57;;;13.10;89.70;;;;;;6204831;28;19922;-81
2023/04/08 10:39:55;;;;;;;14.55;10.77;;;12.90;90.80;;;;;;6221262;28;20047;-79
2023/04/08 10:42:57;;;;;;;14.82;11.32;;;13.10;90.50;;;;;;6223059;28;20046;-80
2023/04/08 10:46:00;;;;;;;14.30;11.02;;;13.10;90.80;;;;;;6221026;28;20051;-80
2023/04/08 10:49:02;;;;;;;14.55;11.45;;;13.10;90.80;;;;;;6203162;28;20402;-80
2023/04/08 10:52:08;;;;;;;16.40;11.57;;;12.70;91.70;;;;;;6202573;28;20042;-79
2023/04/08 10:55:11;;;;;;;16.63;11.95;;;12.50;92.10;;;;;;6202298;28;20483;-80
2023/04/08 10:58:15;;;;;;;16.58;11.38;;;12.60;91.80;;;;;;6202388;28;20476;-81
2023/04/08 11:01:18;;;;;;;16.10;11.30;;;12.60;91.00;;;;;;6201614;28;20062;-78
2023/04/08 11:04:22;;;;;;;15.93;11.80;;;12.60;91.40;;;;;;6202144;28;20053;-79
2023/04/08 11:07:26;;;;;;;14.00;11.52;;;12.40;91.20;;;;;;6201204;28;20053;-81
2023/04/08 11:10:30;;;;;;;15.15;11.27;;;12.20;90.70;;;;;;6201807;28;20057;-81
2023/04/08 11:13:33;;;;;;;17.48;11.80;;;12.30;91.10;;;;;;6201442;28;20050;-80
2023/04/08 11:16:37;;;;;;;16.03;12.13;;;12.10;91.40;;;;;;6201839;28;20053;-79
2023/04/08 11:19:39;;;;;;;14.23;10.85;;;12.10;90.20;;;;;;6201917;28;20565;-80
2023/04/08 11:22:41;;;;;;;15.93;11.15;;;12.00;90.10;;;;;;6201360;28;20058;-78
2023/04/08 11:25:46;;;;;;;14.65;11.05;;;11.90;89.50;;;;;;6202209;28;20046;-79
2023/04/08 11:28:50;;;;;;;15.75;10.98;;;11.90;90.00;;;;;;6201396;28;20056;-81
2023/04/08 11:31:52;;;;;;;14.60;10.85;;;11.80;87.00;;;;;;6196864;28;20070;-78
2023/04/08 11:34:54;;;;;;;16.77;10.52;;;11.70;86.30;;;;;;6201238;28;20050;-78
2023/04/08 11:37:57;;;;;;;16.13;11.90;;;11.60;86.00;;;;;;6189134;28;20050;-80
2023/04/08 11:41:00;;;;;;;14.93;10.97;;;11.60;85.60;;;;;;6195155;28;20109;-79
2023/04/08 11:44:02;;;;;;;15.18;10.98;;;11.60;86.40;;;;;;6200219;28;20317;-80
2023/04/08 11:47:04;;;;;;;14.73;10.98;;;11.70;87.00;;;;;;6196334;28;20487;-80
2023/04/08 11:50:08;;;;;;;15.60;11.18;;;11.80;85.20;;;;;;6197838;28;20050;-78
2023/04/08 11:53:21;;;;;;;15.13;10.68;;;11.70;84.10;;;;;;6176313;28;20061;-77
2023/04/08 11:56:29;;;;;;;14.57;10.45;;;11.90;83.80;;;;;;6197442;28;20083;-77
2023/04/08 11:59:31;;;;;;;14.27;10.23;;;11.80;84.20;;;;;;6196695;28;20129;-77
2023/04/08 12:02:33;;;;;;;14.13;9.95;;;11.90;82.40;;;;;;6188413;28;20057;-79
2023/04/08 12:05:35;;;;;;;14.32;10.25;;;11.80;83.50;;;;;;6171306;28;20066;-78
2023/04/08 12:08:38;;;;;;;13.50;9.15;;;11.80;83.00;;;;;;6172966;28;20047;-78
2023/04/08 12:11:41;;;;;;;12.65;9.20;;;11.80;80.30;;;;;;6172897;28;20396;-77
2023/04/08 12:14:43;;;;;;;13.38;10.27;;;11.80;81.30;;;;;;6174771;28;20047;-78
2023/04/08 12:17:45;;;;;;;13.02;9.82;;;11.80;81.60;;;;;;6179970;28;20047;-79
2023/04/08 12:20:47;;;;;;;14.27;9.75;;;11.90;82.40;;;;;;6173859;28;20070;-77
2023/04/08 12:23:49;;;;;;;15.25;10.27;;;11.90;82.00;;;;;;6196614;28;20058;-77
2023/04/08 12:26:52;;;;;;;12.45;9.40;;;11.80;82.20;;;;;;6197130;28;20129;-77
2023/04/08 12:29:54;;;;;;;14.25;9.98;;;11.90;81.80;;;;;;6195495;28;20054;-77
2023/04/08 12:32:56;;;;;;;13.70;10.07;;;12.00;82.20;;;;;;6195700;28;20053;-78
2023/04/08 12:35:58;;;;;;;13.40;10.45;;;12.00;82.70;;;;;;6197957;28;20050;-78
2023/04/08 12:39:00;;;;;;;23.38;15.18;;;11.80;82.00;;;;;;6204946;28;20073;-78
2023/04/08 12:42:04;;;;;;;13.80;10.65;;;11.80;84.30;;;;;;6213027;28;20764;-78
2023/04/08 12:45:08;;;;;;;13.15;9.38;;;11.90;84.60;;;;;;6216318;28;20165;-77
2023/04/08 12:48:10;;;;;;;;;;;12.00;84.00;;;;;;6216905;28;20061;-76
2023/04/08 12:51:12;;;;;;;13.10;10.05;;;11.90;84.20;;;;;;6217288;28;19932;-78
2023/04/08 12:54:13;;;;;;;16.30;10.45;;;12.00;85.30;;;;;;6209145;28;20038;-79
2023/04/08 12:57:17;;;;;;;15.38;10.40;;;12.10;84.60;;;;;;6203794;28;20050;-77
2023/04/08 13:00:19;;;;;;;14.95;10.77;;;12.20;83.80;;;;;;6193379;28;20057;-79
2023/04/08 13:03:21;;;;;;;15.20;11.27;;;12.10;84.00;;;;;;6184260;28;20069;-79
2023/04/08 13:06:23;;;;;;;17.85;10.65;;;12.10;84.20;;;;;;6170308;28;20587;-79
2023/04/08 13:09:25;;;;;;;13.85;10.10;;;12.00;85.00;;;;;;6180210;28;20053;-81
2023/04/08 13:12:30;;;;;;;15.13;10.23;;;11.90;84.60;;;;;;6209926;28;20058;-78
2023/04/08 13:15:32;;;;;;;14.55;10.43;;;12.00;86.00;;;;;;6197717;28;20250;-79
2023/04/08 13:18:35;;;;;;;12.77;10.43;;;11.80;85.20;;;;;;6196765;28;20051;-80
2023/04/08 13:21:37;;;;;;;16.05;10.60;;;11.70;85.80;;;;;;6197116;28;20054;-79
2023/04/08 13:24:39;;;;;;;15.60;10.70;;;11.60;86.00;;;;;;6213487;28;20054;-79
2023/04/08 13:27:42;;;;;;;13.70;11.27;;;11.70;86.90;;;;;;6198351;28;20046;-82
2023/04/08 13:30:44;;;;;;;15.57;11.80;;;11.70;87.70;;;;;;6199544;28;20054;-78
2023/04/08 13:33:46;;;;;;;15.75;11.68;;;11.60;87.90;;;;;;6183269;28;20055;-78
2023/04/08 13:36:48;;;;;;;13.63;10.57;;;11.60;88.00;;;;;;6159804;28;20058;-77
2023/04/08 13:39:49;;;;;;;14.33;11.30;;;11.60;88.00;;;;;;6177214;28;20512;-79
2023/04/08 13:42:54;;;;;;;16.58;11.27;;;11.50;87.50;;;;;;6195794;28;20054;-79
2023/04/08 13:45:57;;;;;;;14.50;10.82;;;11.60;87.00;;;;;;6200302;28;20777;-78
2023/04/08 13:48:59;;;;;;;16.15;10.93;;;11.50;87.90;;;;;;6200658;28;20618;-79
2023/04/08 13:52:01;;;;;;;14.20;10.60;;;11.60;87.70;;;;;;6199406;28;20058;-79
2023/04/08 13:55:03;;;;;;;14.27;10.98;;;11.70;87.50;;;;;;6200369;28;20496;-77
2023/04/08 13:58:07;;;;;;;14.18;10.65;;;11.60;87.90;;;;;;6194028;28;20058;-78
2023/04/08 14:01:08;;;;;;;14.27;10.63;;;11.80;88.20;;;;;;6199841;28;20058;-80
2023/04/08 14:04:10;;;;;;;17.30;12.10;;;11.60;87.50;;;;;;6180134;28;20127;-79
2023/04/08 14:07:12;;;;;;;17.05;11.18;;;11.50;88.50;;;;;;6177197;28;20515;-77
2023/04/08 14:10:16;;;;;;;17.05;11.27;;;11.50;88.10;;;;;;6176438;28;20378;-79
2023/04/08 14:13:19;;;;;;;14.43;10.57;;;11.50;88.90;;;;;;6192852;28;20054;-77
2023/04/08 14:16:21;;;;;;;11.57;9.65;;;11.50;89.10;;;;;;6182986;28;20053;-77
2023/04/08 14:19:23;;;;;;;15.77;10.88;;;11.40;89.30;;;;;;6199301;28;20472;-77
2023/04/08 14:22:25;;;;;;;13.18;10.15;;;11.20;90.30;;;;;;6200789;28;20411;-79
2023/04/08 14:25:27;;;;;;;14.38;10.02;;;11.20;90.50;;;;;;6199852;28;20066;-77
2023/04/08 14:28:31;;;;;;;13.40;9.85;;;11.30;90.20;;;;;;6215082;28;20046;-79
2023/04/08 14:31:33;;;;;;;14.98;10.40;;;11.40;89.60;;;;;;6213614;28;20498;-74
2023/04/08 14:34:36;;;;;;;12.45;9.52;;;11.60;90.00;;;;;;6211598;28;20064;-82
2023/04/08 14:37:38;;;;;;;16.05;10.98;;;11.50;89.90;;;;;;6204377;28;20054;-79
2023/04/08 14:40:40;;;;;;;12.50;10.05;;;11.50;89.80;;;;;;6198849;28;20407;-78
2023/04/08 14:43:43;;;;;;;13.35;9.93;;;11.50;89.90;;;;;;6202624;28;20046;-81
2023/04/08 14:46:45;;;;;;;13.45;10.35;;;11.60;89.90;;;;;;6215482;28;20500;-79
2023/04/08 14:49:47;;;;;;;14.88;11.52;;;11.60;89.40;;;;;;6218322;28;20110;-79
2023/04/08 14:52:49;;;;;;;14.27;10.23;;;11.50;90.10;;;;;;6210311;28;20360;-80
2023/04/08 14:55:51;;;;;;;13.70;10.45;;;11.40;90.80;;;;;;6203656;28;20057;-79
2023/04/08 14:58:54;;;;;;;14.77;10.45;;;11.50;90.20;;;;;;6198755;28;20051;-76
2023/04/08 15:01:56;;;;;;;12.25;9.85;;;11.50;90.10;;;;;;6212183;28;20058;-79
2023/04/08 15:04:58;;;;;;;13.85;10.43;;;11.50;90.10;;;;;;6211194;28;20054;-77
2023/04/08 15:08:00;;;;;;;14.65;10.60;;;11.60;90.30;;;;;;6210194;28;20074;-78
2023/04/08 15:11:02;;;;;;;14.23;10.60;;;11.50;90.30;;;;;;6179243;28;20090;-77
2023/04/08 15:14:05;;;;;;;14.90;11.02;;;11.40;90.30;;;;;;6203731;28;20050;-78
2023/04/08 15:17:09;;;;;;;16.05;10.82;;;11.50;90.50;;;;;;6182803;28;20504;-78
2023/04/08 15:20:12;;;;;;;14.25;11.07;;;11.50;91.40;;;;;;6179964;28;20053;-80
2023/04/08 15:23:14;;;;;;;13.93;9.77;;;11.40;91.00;;;;;;6199721;28;20038;-78
2023/04/08 15:26:16;;;;;;;13.55;9.68;;;11.40;91.60;;;;;;6224685;28;20046;-78
2023/04/08 15:29:20;;;;;;;13.35;9.32;;;11.10;91.70;;;;;;6218285;28;20046;-79
2023/04/08 15:32:22;;;;;;;12.15;8.77;;;11.20;91.90;;;;;;6217983;28;20050;-78
2023/04/08 15:35:25;;;;;;;11.57;8.13;;;11.20;91.40;;;;;;6194283;28;20432;-80
2023/04/08 15:38:27;;;;;;;10.75;8.32;;;11.20;91.40;;;;;;6201439;28;20729;-79
2023/04/08 15:41:31;;;;;;;11.10;7.65;;;11.30;90.70;;;;;;6207329;28;20125;-81
2023/04/08 15:44:35;;;;;;;11.10;7.95;;;11.30;91.20;;;;;;6201791;28;20121;-79
2023/04/08 15:47:37;;;;;;;9.77;7.47;;;11.20;90.70;;;;;;6210126;28;20136;-77
2023/04/08 15:50:39;;;;;;;10.75;7.40;;;11.20;91.10;;;;;;6206103;28;20050;-77
2023/04/08 15:53:41;;;;;;;10.00;6.65;;;11.10;91.40;;;;;;6203439;28;20051;-77
2023/04/08 15:56:45;;;;;;;10.50;6.90;;;11.10;91.40;;;;;;6209798;28;20050;-76
2023/04/08 15:59:48;;;;;;;8.63;6.50;;;11.10;91.40;;;;;;6223937;28;20046;-76
2023/04/08 16:02:50;;;;;;;9.50;5.90;;;11.00;91.40;;;;;;6217975;28;20066;-77
2023/04/08 16:05:52;;;;;;;9.38;6.43;;;11.10;91.80;;;;;;6182861;28;20042;-77
2023/04/08 16:08:54;;;;;;;7.78;5.38;;;11.00;91.80;;;;;;6195923;28;20057;-76
2023/04/08 16:11:56;;;;;;;10.43;5.55;;;10.90;91.70;;;;;;6190548;28;20109;-76
2023/04/08 16:15:00;;;;;;;7.53;4.75;;;10.90;92.00;;;;;;6181279;28;20066;-78
2023/04/08 16:18:03;;;;;;;8.07;4.97;;;10.70;92.40;;;;;;6190615;28;20064;-80
2023/04/08 16:21:05;;;;;;;8.00;4.78;;;10.70;92.70;;;;;;6195617;28;20133;-80
2023/04/08 16:24:07;;;;;;;7.07;4.22;;;10.70;92.70;;;;;;6197097;28;20050;-78
2023/04/08 16:27:09;;;;;;;6.85;4.47;;;10.80;92.50;;;;;;6192785;28;20054;-80
2023/04/08 16:30:13;;;;;;;7.20;4.63;;;10.70;92.70;;;;;;6182122;28;20054;-76
2023/04/08 16:33:15;;;;;;;8.23;5.22;;;10.70;93.10;;;;;;6196561;28;20061;-78
2023/04/08 16:36:17;;;;;;;7.07;4.63;;;10.70;93.30;;;;;;6191950;28;20062;-79
2023/04/08 16:39:19;;;;;;;7.32;4.72;;;10.70;93.50;;;;;;6194283;28;20057;-79
2023/04/08 16:42:21;;;;;;;8.38;5.00;;;10.70;93.70;;;;;;6196426;28;20058;-77
2023/04/08 16:45:25;;;;;;;7.18;4.63;;;10.90;93.30;;;;;;6196951;28;20065;-79
2023/04/08 16:48:27;;;;;;;;;;;10.90;93.20;;;;;;6195579;28;20411;-79
2023/04/08 16:51:28;;;;;;;8.43;4.75;;;10.80;93.00;;;;;;6195926;28;19925;-78
2023/04/08 16:54:31;;;;;;;6.15;4.50;;;10.80;93.30;;;;;;6195880;28;20047;-78
2023/04/08 16:57:33;;;;;;;10.20;4.88;;;10.70;93.50;;;;;;6189702;28;20428;-77
2023/04/08 17:00:36;;;;;;;8.20;5.75;;;10.90;94.90;;;;;;6172066;28;20133;-75
2023/04/08 17:03:38;;;;;;;8.55;5.60;;;11.10;94.50;;;;;;6175016;28;20611;-80
2023/04/08 17:06:41;;;;;;;8.25;5.05;;;10.90;93.70;;;;;;6195157;28;20053;-80
2023/04/08 17:09:43;;;;;;;7.95;5.78;;;10.90;93.70;;;;;;6195846;28;20128;-79
2023/04/08 17:12:45;;;;;;;10.82;6.53;;;10.70;93.60;;;;;;6194827;28;20043;-80
2023/04/08 17:15:48;;;;;;;7.75;4.90;;;10.80;93.90;;;;;;6190350;28;20058;-81
2023/04/08 17:18:50;;;;;;;7.53;5.22;;;10.80;93.80;;;;;;6194919;28;20078;-77
2023/04/08 17:21:52;;;;;;;7.40;5.30;;;11.00;93.40;;;;;;6175602;28;20062;-81
2023/04/08 17:24:54;;;;;;;8.18;5.80;;;10.80;93.80;;;;;;6172282;28;20058;-79
2023/04/08 17:27:57;;;;;;;6.97;5.07;;;10.80;93.80;;;;;;6179522;28;20043;-78
2023/04/08 17:31:00;;;;;;;7.65;5.20;;;10.90;94.00;;;;;;6196007;28;20054;-77
2023/04/08 17:34:02;;;;;;;8.38;5.28;;;10.90;93.70;;;;;;6197992;28;20073;-80
2023/04/08 17:37:04;;;;;;;8.02;5.07;;;10.90;93.80;;;;;;6197661;28;20046;-79
2023/04/08 17:40:08;;;;;;;7.95;4.88;;;10.90;93.80;;;;;;6180909;28;20054;-78
2023/04/08 17:43:11;;;;;;;8.75;5.45;;;10.90;93.80;;;;;;6182020;28;20069;-79
2023/04/08 17:46:14;;;;;;;8.75;5.65;;;10.90;94.10;;;;;;6196356;28;20510;-80
2023/04/08 17:49:17;;;;;;;7.97;5.78;;;10.80;94.10;;;;;;6182307;28;20390;-79
2023/04/08 17:52:19;;;;;;;7.50;5.70;;;10.90;93.80;;;;;;6184850;28;20101;-81
2023/04/08 17:55:21;;;;;;;7.45;5.00;;;10.80;94.30;;;;;;6189344;28;20046;-79
2023/04/08 17:58:23;;;;;;;7.30;5.20;;;10.80;94.10;;;;;;6190411;28;20061;-80
2023/04/08 18:01:27;;;;;;;11.88;8.10;;;10.90;94.20;;;;;;6195287;28;20488;-79
2023/04/08 18:04:29;;;;;;;9.90;6.75;;;10.80;94.80;;;;;;6194232;28;20057;-81
2023/04/08 18:07:31;;;;;;;11.10;8.38;;;10.80;94.60;;;;;;6187660;28;20054;-78
2023/04/08 18:10:33;;;;;;;8.35;6.13;;;10.80;94.50;;;;;;6183171;28;20046;-80
2023/04/08 18:13:35;;;;;;;11.23;5.80;;;10.70;94.50;;;;;;6195788;28;20411;-80
2023/04/08 18:16:38;;;;;;;7.60;5.63;;;10.80;94.80;;;;;;6198865;28;20164;-80
2023/04/08 18:19:40;;;;;;;7.95;5.75;;;10.70;94.70;;;;;;6192407;28;20055;-79
2023/04/08 18:22:42;;;;;;;9.75;5.82;;;10.50;95.00;;;;;;6178452;28;20519;-78
2023/04/08 18:25:47;;;;;;;9.85;6.43;;;10.50;95.10;;;;;;6195730;28;20046;-77
2023/04/08 18:28:49;;;;;;;8.65;6.03;;;10.60;95.50;;;;;;6223204;28;20054;-81
2023/04/08 18:31:53;;;;;;;8.90;6.25;;;10.50;95.70;;;;;;6218864;28;20105;-80
2023/04/08 18:34:54;;;;;;;9.90;6.28;;;10.60;95.40;;;;;;6226935;28;20058;-79
2023/04/08 18:37:56;;;;;;;8.65;6.65;;;10.60;95.50;;;;;;6228092;28;20044;-80
2023/04/08 18:40:58;;;;;;;8.65;6.13;;;10.60;95.40;;;;;;6201163;28;20051;-79
2023/04/08 18:44:02;;;;;;;10.25;6.95;;;10.60;95.50;;;;;;6200901;28;20412;-79
2023/04/08 18:47:06;;;;;;;9.27;6.63;;;10.60;95.40;;;;;;6198821;28;20182;-79
2023/04/08 18:50:09;;;;;;;10.48;6.95;;;10.60;95.30;;;;;;6203664;28;20042;-79
2023/04/08 18:53:11;;;;;;;9.20;7.17;;;10.60;95.40;;;;;;6200194;28;20134;-81
2023/04/08 18:56:18;;;;;;;10.20;7.70;;;10.60;95.50;;;;;;6198546;28;20128;-81
2023/04/08 18:59:20;;;;;;;9.80;7.40;;;10.60;95.60;;;;;;6199746;28;20050;-79
2023/04/08 19:02:23;;;;;;;9.63;6.82;;;10.60;95.70;;;;;;6199408;28;20073;-80
2023/04/08 19:05:25;;;;;;;10.00;7.57;;;10.40;95.90;;;;;;6197486;28;20054;-80
2023/04/08 19:08:27;;;;;;;9.23;7.38;;;10.50;95.90;;;;;;6198551;28;20050;-80
2023/04/08 19:11:28;;;;;;;10.77;7.82;;;10.50;96.00;;;;;;6198957;28;20581;-79
2023/04/08 19:14:31;;;;;;;11.23;7.70;;;10.40;96.00;;;;;;6202772;28;20049;-81
2023/04/08 19:17:34;;;;;;;11.10;7.65;;;10.50;96.00;;;;;;6211205;28;20182;-80
2023/04/08 19:20:36;;;;;;;9.95;8.05;;;10.30;96.30;;;;;;6216077;28;20054;-82
2023/04/08 19:23:40;;;;;;;12.68;8.52;;;10.40;96.40;;;;;;6214641;28;20054;-87
2023/04/08 19:26:42;;;;;;;11.85;9.00;;;10.40;96.30;;;;;;6168202;28;20120;-79
2023/04/08 19:29:43;;;;;;;11.05;8.57;;;10.10;96.50;;;;;;6199118;28;20046;-79
2023/04/08 19:32:47;;;;;;;16.00;8.77;;;10.30;96.80;;;;;;6199447;28;20042;-78
2023/04/08 19:35:49;;;;;;;;;;;10.20;96.80;;;;;;6196012;28;20480;-79
2023/04/08 19:38:51;;;;;;;11.68;9.02;;;10.10;96.90;;;;;;6197668;28;19926;-79
2023/04/08 19:41:53;;;;;;;14.68;10.15;;;9.90;97.40;;;;;;6197487;28;20055;-78
2023/04/08 19:44:54;;;;;;;13.90;9.77;;;9.70;97.90;;;;;;6197725;28;20051;-80
2023/04/08 19:47:58;;;;;;;12.52;9.30;;;10.00;99.00;;;;;;6198316;28;20204;-77
2023/04/08 19:50:59;;;;;;;13.00;9.82;;;10.00;98.10;;;;;;6199787;28;20050;-80
2023/04/08 19:54:01;;;;;;;13.65;9.32;;;10.10;97.80;;;;;;6199367;28;20054;-79
2023/04/08 19:57:03;;;;;;;14.90;9.73;;;10.10;97.80;;;;;;6201207;28;20364;-80
2023/04/08 20:00:07;;;;;;;13.20;9.68;;;10.00;98.10;;;;;;6222887;28;20042;-80
2023/04/08 20:03:12;;;;;;;;;;;10.00;98.10;;;;;;6212050;28;20143;-81
2023/04/08 20:06:14;;;;;;;14.25;10.55;;;9.90;98.30;;;;;;6199172;28;20034;-80
2023/04/08 20:09:16;;;;;;;13.25;9.65;;;9.80;98.40;;;;;;6198443;28;20062;-80
2023/04/08 20:12:18;;;;;;;14.23;10.57;;;9.80;98.50;;;;;;6195058;28;20472;-80
2023/04/08 20:15:20;;;;;;;12.55;9.20;;;9.90;98.60;;;;;;6180705;28;20056;-79
2023/04/08 20:18:24;;;;;;;11.57;8.80;;;9.90;98.80;;;;;;6197914;28;20054;-81
2023/04/08 20:21:26;;;;;;;;;;;10.10;98.70;;;;;;6199719;28;20053;-79
2023/04/08 20:24:28;;;;;;;13.10;8.33;;;10.10;98.40;;;;;;6197825;28;20012;-81
2023/04/08 20:27:32;;;;;;;13.18;9.18;;;10.10;98.50;;;;;;6189149;28;20506;-79
2023/04/08 20:30:34;;;;;;;13.50;10.75;;;10.20;98.10;;;;;;6197596;28;20480;-80
2023/04/08 20:33:42;;;;;;;12.82;10.20;;;10.10;98.10;;;;;;6197603;28;20050;-78
2023/04/08 20:36:44;;;;;;;13.63;9.90;;;9.80;98.20;;;;;;6181723;28;20054;-79
2023/04/08 20:39:46;;;;;;;11.65;9.30;;;9.70;98.90;;;;;;6177789;28;20048;-78
2023/04/08 20:42:48;;;;;;;12.52;9.63;;;9.80;98.60;;;;;;6197091;28;20058;-78